Latest Weather Observations for Nambour

IDQ60901

Issued at 1:31 pm EST Tuesday 27 June 2017 (issued every 10 minutes, with the page automatically refreshed every 10 minutes)

About weather observations | Map of Brisbane area stations | Latest observations for Brisbane area | Other Formats
Station Details ID: 040988 Name: NAMBOUR DAFF - HILLSIDE Lat: -26.64 Lon: 152.94 Height: 53.24 m
Data from the previous 72 hours. | See also: Recent months at Nambour
Date/Time
EST
Temp
°C
App
Temp
°C
Dew
Point
°C
Rel
Hum
%
Delta-T
°C
Wind Press
QNH
hPa
Press
MSL
hPa
Rain since
9am
mm
Dir  Spd
km/h
Gust
km/h
Spd
kts
Gust
kts
27/01:30pm 21.1 20.6 12.5 58 4.8 ENE 7 13 4 7 1023.1 1023.1 0.0
27/01:00pm 21.6 21.5 14.0 62 4.4 ENE 7 13 4 7 1023.3 1023.3 0.0
27/12:30pm 20.3 20.8 14.0 67 3.6 ESE 4 7 2 4 1024.0 1024.0 0.0
27/12:00pm 21.4 22.2 14.8 66 3.9 ENE 4 7 2 4 1024.1 1024.1 0.0
27/11:30am 20.3 21.1 13.7 66 3.8 E 2 4 1 2 1024.5 1024.5 0.0
27/11:00am 20.6 21.4 13.6 64 4.0 SSW 2 7 1 4 1024.9 1024.9 0.0
27/10:30am 20.5 20.5 13.7 65 3.9 ESE 6 9 3 5 1025.0 1025.0 0.0
27/10:00am 19.3 19.2 13.3 68 3.4 SE 6 9 3 5 1025.2 1025.2 0.0
27/09:30am 18.9 19.1 13.1 69 3.3 ENE 4 7 2 4 1025.4 1025.4 0.0
27/09:00am 17.3 19.1 15.5 89 1.1 CALM 0 0 0 0 1025.2 1025.2 0.2
27/08:30am 16.2 17.9 15.1 93 0.6 CALM 0 0 0 0 1024.8 1024.8 0.2
27/08:00am 14.9 16.2 14.1 95 0.4 CALM 0 0 0 0 1024.6 1024.6 0.2
27/07:30am 14.4 15.6 13.9 97 0.3 CALM 0 0 0 0 1024.4 1024.4 0.2
27/07:00am 12.6 13.2 12.0 96 0.3 CALM 0 0 0 0 1024.0 1024.0 0.2
27/06:30am 13.5 14.4 13.0 97 0.3 CALM 0 0 0 0 1023.8 1023.8 0.2
27/06:00am 13.4 14.3 12.9 97 0.3 CALM 0 0 0 0 1023.5 1023.5 0.2
27/05:30am 12.8 13.5 12.3 97 0.3 CALM 0 4 0 2 1023.3 1023.3 0.2
27/05:00am 13.4 14.3 12.9 97 0.3 CALM 0 0 0 0 1022.8 1022.8 0.2
27/04:30am 13.0 13.8 12.4 96 0.3 CALM 0 0 0 0 1022.9 1022.9 0.0
27/04:00am 13.4 14.3 12.8 96 0.3 CALM 0 0 0 0 1022.7 1022.7 0.0
27/03:30am 13.4 14.3 12.8 96 0.3 CALM 0 0 0 0 1022.7 1022.7 0.0
27/03:00am 13.7 14.7 13.1 96 0.3 CALM 0 0 0 0 1022.9 1022.9 0.0
27/02:30am 13.1 13.9 12.5 96 0.3 CALM 0 0 0 0 1022.9 1022.9 0.0
27/02:00am 13.4 14.3 12.8 96 0.3 CALM 0 0 0 0 1022.8 1022.8 0.0
27/01:30am 13.1 13.8 12.3 95 0.4 CALM 0 0 0 0 1022.8 1022.8 0.0
27/01:00am 13.9 14.9 13.1 95 0.4 CALM 0 0 0 0 1022.8 1022.8 0.0
27/12:30am 13.9 14.9 13.1 95 0.4 CALM 0 0 0 0 1022.8 1022.8 0.0
27/12:00am 14.0 15.0 13.2 95 0.4 CALM 0 0 0 0 1023.0 1023.0 0.0
 
Date/Time
EST
Temp
°C
App
Temp
°C
Dew
Point
°C
Rel
Hum
%
Delta-T
°C
Wind Press
QNH
hPa
Press
MSL
hPa
Rain since
9am
mm
Dir  Spd
km/h
Gust
km/h
Spd
kts
Gust
kts
26/11:30pm 14.2 15.3 13.4 95 0.4 CALM 0 0 0 0 1023.0 1023.0 0.0
26/11:00pm 14.1 15.1 13.3 95 0.4 CALM 0 0 0 0 1022.9 1022.9 0.0
26/10:30pm 14.0 15.0 13.2 95 0.4 CALM 0 0 0 0 1023.1 1023.1 0.0
26/10:00pm 14.1 15.0 12.8 92 0.7 CALM 0 0 0 0 1023.2 1023.2 0.0
26/09:30pm 14.2 15.1 12.9 92 0.7 CALM 0 0 0 0 1023.2 1023.2 0.0
26/09:00pm 14.5 15.4 13.0 91 0.8 CALM 0 0 0 0 1022.9 1022.9 0.0
26/08:30pm 14.7 15.7 13.1 90 0.9 CALM 0 0 0 0 1022.6 1022.6 0.0
26/08:00pm 14.9 15.8 12.9 88 1.1 CALM 0 0 0 0 1022.5 1022.5 0.0
26/07:30pm 15.5 16.4 12.8 84 1.5 CALM 0 0 0 0 1022.3 1022.3 0.0
26/07:00pm 15.8 16.6 12.5 81 1.8 CALM 0 0 0 0 1022.0 1022.0 0.0
26/06:30pm 16.4 17.2 12.6 78 2.1 CALM 0 0 0 0 1021.7 1021.7 0.0
26/06:00pm 17.3 18.2 12.8 75 2.5 CALM 0 0 0 0 1021.2 1021.2 0.0
26/05:30pm 18.4 19.4 13.3 72 2.9 CALM 0 4 0 2 1020.7 1020.7 0.0
26/05:00pm 19.8 20.5 13.3 66 3.7 SE 2 6 1 3 1020.6 1020.6 0.0
26/04:30pm 21.0 20.7 13.2 61 4.5 E 7 13 4 7 1020.1 1020.1 0.0
26/04:00pm 21.9 21.3 13.5 59 4.8 E 9 15 5 8 1020.0 1020.0 0.0
26/03:30pm 22.7 22.2 13.7 56 5.2 ENE 9 13 5 7 1019.7 1019.7 0.0
26/03:00pm 23.1 22.1 13.3 54 5.7 E 11 17 6 9 1019.2 1019.2 0.0
26/02:30pm 24.3 23.4 10.6 42 7.6 ESE 6 9 3 5 1019.0 1019.0 0.0
26/02:00pm 24.8 23.7 9.9 39 8.2 ESE 6 9 3 5 1019.1 1019.1 0.0
26/01:30pm 24.8 23.8 10.3 40 8.0 E 6 11 3 6 1019.1 1019.1 0.0
26/01:00pm 25.2 24.6 10.3 39 8.3 ENE 4 6 2 3 1019.4 1019.4 0.0
26/12:30pm 24.5 24.3 11.8 45 7.2 E 4 7 2 4 1019.7 1019.7 0.0
26/12:00pm 24.0 23.0 10.3 42 7.5 ENE 6 11 3 6 1020.0 1020.0 0.0
26/11:30am 23.6 23.1 12.0 48 6.6 E 6 7 3 4 1020.6 1020.6 0.0
26/11:00am 23.0 23.1 12.6 52 5.9 E 4 7 2 4 1021.0 1021.0 0.0
26/10:30am 21.8 21.9 12.6 56 5.2 SSE 4 6 2 3 1021.4 1021.4 0.0
26/10:00am 21.6 22.4 14.7 65 4.1 E 4 7 2 4 1021.4 1021.4 0.0
26/09:30am 19.9 20.3 13.8 68 3.5 ENE 4 6 2 3 1021.4 1021.4 0.0
26/09:00am 18.1 19.0 14.0 77 2.3 ENE 2 4 1 2 1021.3 1021.3 0.0
26/08:30am 16.2 17.1 12.9 81 1.8 CALM 0 0 0 0 1021.2 1021.2 0.0
26/08:00am 14.4 15.3 13.0 91 0.8 CALM 0 0 0 0 1020.9 1020.9 0.0
26/07:30am 12.6 13.2 12.0 96 0.3 CALM 0 0 0 0 1020.5 1020.5 0.0
26/07:00am 11.9 12.3 11.3 96 0.3 CALM 0 0 0 0 1020.3 1020.3 0.0
26/06:30am 11.4 11.7 10.8 96 0.3 CALM 0 0 0 0 1020.1 1020.1 0.0
26/06:00am 11.8 12.2 11.2 96 0.3 CALM 0 0 0 0 1019.9 1019.9 0.0
26/05:30am 12.0 12.4 11.4 96 0.3 CALM 0 0 0 0 1019.7 1019.7 0.0
26/05:00am 12.6 13.2 12.0 96 0.3 CALM 0 0 0 0 1019.5 1019.5 0.0
26/04:30am 12.2 12.7 11.6 96 0.3 CALM 0 0 0 0 1019.3 1019.3 0.0
26/04:00am 12.8 13.5 12.2 96 0.3 CALM 0 0 0 0 1019.3 1019.3 0.0
26/03:30am 12.5 12.7 11.9 96 0.3 SSW 2 4 1 2 1019.2 1019.2 0.0
26/03:00am 13.0 13.8 12.4 96 0.3 CALM 0 0 0 0 1019.4 1019.4 0.0
26/02:30am 12.7 13.4 12.1 96 0.3 CALM 0 0 0 0 1019.4 1019.4 0.0
26/02:00am 12.5 13.0 11.7 95 0.4 CALM 0 0 0 0 1019.5 1019.5 0.0
26/01:30am 12.8 13.4 12.0 95 0.4 CALM 0 0 0 0 1019.6 1019.6 0.0
26/01:00am 13.0 13.7 12.2 95 0.4 CALM 0 0 0 0 1019.6 1019.6 0.0
26/12:30am 13.4 14.2 12.6 95 0.4 CALM 0 0 0 0 1019.8 1019.8 0.0
26/12:00am 13.4 14.2 12.6 95 0.4 CALM 0 0 0 0 1019.9 1019.9 0.0
 
Date/Time
EST
Temp
°C
App
Temp
°C
Dew
Point
°C
Rel
Hum
%
Delta-T
°C
Wind Press
QNH
hPa
Press
MSL
hPa
Rain since
9am
mm
Dir  Spd
km/h
Gust
km/h
Spd
kts
Gust
kts
25/11:30pm 13.7 14.6 12.9 95 0.4 CALM 0 0 0 0 1020.0 1020.0 0.0
25/11:00pm 13.8 14.7 13.0 95 0.4 CALM 0 0 0 0 1020.0 1020.0 0.0
25/10:30pm 14.2 15.3 13.4 95 0.4 CALM 0 0 0 0 1020.2 1020.2 0.0
25/10:00pm 14.2 15.3 13.4 95 0.4 CALM 0 0 0 0 1020.3 1020.3 0.0
25/09:30pm 14.5 15.6 13.5 94 0.6 CALM 0 0 0 0 1020.1 1020.1 0.0
25/09:00pm 14.4 15.4 13.1 92 0.7 CALM 0 0 0 0 1019.9 1019.9 0.0
25/08:30pm 14.9 16.1 13.8 93 0.6 CALM 0 0 0 0 1019.8 1019.8 0.0
25/08:00pm 15.1 16.2 13.6 91 0.8 CALM 0 0 0 0 1019.8 1019.8 0.0
25/07:30pm 15.3 16.4 13.5 89 1.0 CALM 0 0 0 0 1019.5 1019.5 0.0
25/07:00pm 15.4 16.1 12.3 82 1.7 CALM 0 0 0 0 1019.2 1019.2 0.0
25/06:30pm 16.2 17.0 12.7 80 1.9 CALM 0 0 0 0 1018.6 1018.6 0.0
25/06:00pm 17.6 18.6 13.1 75 2.5 CALM 0 0 0 0 1018.6 1018.6 0.0
25/05:30pm 18.3 19.2 13.0 71 3.0 CALM 0 0 0 0 1018.4 1018.3 0.0
25/05:00pm 19.5 19.7 13.2 67 3.6 ENE 4 6 2 3 1018.2 1018.1 0.0
25/04:30pm 20.7 20.2 12.7 60 4.5 NNE 7 11 4 6 1017.8 1017.7 0.0
25/04:00pm 21.3 20.8 12.7 58 4.9 ENE 7 11 4 6 1017.7 1017.6 0.0
25/03:30pm 21.9 20.7 12.7 56 5.2 ENE 11 20 6 11 1017.7 1017.6 0.0
25/03:00pm 22.3 21.0 12.5 53 5.6 ENE 11 19 6 10 1017.6 1017.5 0.0
25/02:30pm 23.0 21.9 12.0 50 6.2 E 9 19 5 10 1017.7 1017.6 0.0
25/02:00pm 24.0 23.2 9.6 40 7.8 NNW 4 11 2 6 1017.6 1017.5 0.0
25/01:30pm 23.8 23.1 10.1 42 7.5 N 4 7 2 4 1017.8 1017.7 0.0
25/01:00pm 23.3 21.9 9.7 42 7.4 NE 7 13 4 7 1017.8 1017.7 0.0
25/12:30pm 23.2 22.4 10.9 46 6.8 NNE 6 13 3 7 1018.2 1018.1 0.0
25/12:00pm 22.7 21.7 10.2 45 6.8 NE 6 9 3 5 1018.8 1018.8 0.0
25/11:30am 22.6 22.2 11.0 48 6.4 ENE 4 7 2 4 1019.3 1019.3 0.0
25/11:00am 22.0 21.1 10.8 49 6.2 NE 6 9 3 5 1019.6 1019.6 0.0
25/10:30am 21.2 20.7 10.7 51 5.8 ESE 4 7 2 4 1020.2 1020.2 0.0
25/10:00am 20.2 19.7 10.6 54 5.2 ESE 4 7 2 4 1020.2 1020.2 0.0
25/09:30am 19.5 18.8 11.3 59 4.5 E 6 7 3 4 1020.2 1020.2 0.0
25/09:00am 18.5 18.9 11.3 63 3.9 CALM 0 2 0 1 1020.3 1020.3 0.0
25/08:30am 16.4 16.6 10.5 68 3.1 CALM 0 0 0 0 1020.0 1020.0 0.0
25/08:00am 14.9 15.5 11.9 82 1.6 CALM 0 0 0 0 1019.8 1019.8 0.0
25/07:30am 11.8 11.9 10.0 89 0.9 CALM 0 0 0 0 1019.8 1019.8 0.0
25/07:00am 10.6 10.6 9.7 94 0.5 CALM 0 0 0 0 1019.3 1019.3 0.0
25/06:30am 10.2 10.0 9.1 93 0.5 CALM 0 0 0 0 1019.1 1019.1 0.0
25/06:00am 10.4 10.3 9.3 93 0.5 CALM 0 0 0 0 1018.7 1018.7 0.0
25/05:30am 10.5 10.4 9.4 93 0.6 CALM 0 0 0 0 1018.6 1018.6 0.0
25/05:00am 10.4 10.2 9.2 92 0.6 CALM 0 0 0 0 1018.3 1018.2 0.0
25/04:30am 10.5 10.4 9.3 92 0.6 CALM 0 0 0 0 1018.1 1018.0 0.0
25/04:00am 10.5 10.3 8.9 90 0.8 CALM 0 0 0 0 1018.1 1018.0 0.0
25/03:30am 10.7 10.4 8.8 88 0.9 CALM 0 0 0 0 1018.2 1018.1 0.0
25/03:00am 10.4 10.0 8.3 87 1.0 CALM 0 0 0 0 1018.3 1018.2 0.0
25/02:30am 10.6 10.1 7.8 83 1.4 CALM 0 0 0 0 1018.3 1018.2 0.0
25/02:00am 10.9 10.5 8.1 83 1.4 CALM 0 0 0 0 1018.4 1018.3 0.0
25/01:30am 11.2 10.7 7.9 80 1.6 CALM 0 0 0 0 1018.3 1018.2 0.0
25/01:00am 11.1 10.6 8.0 81 1.5 CALM 0 0 0 0 1018.7 1018.7 0.0
25/12:30am 11.2 10.8 8.1 81 1.5 CALM 0 0 0 0 1018.8 1018.8 0.0
25/12:00am 11.4 11.0 8.1 80 1.6 CALM 0 0 0 0 1018.9 1018.9 0.0
 
Date/Time
EST
Temp
°C
App
Temp
°C
Dew
Point
°C
Rel
Hum
%
Delta-T
°C
Wind Press
QNH
hPa
Press
MSL
hPa
Rain since
9am
mm
Dir  Spd
km/h
Gust
km/h
Spd
kts
Gust
kts
24/11:30pm 11.8 11.4 8.3 79 1.7 CALM 0 0 0 0 1018.7 1018.7 0.0
24/11:00pm 13.0 12.7 8.7 75 2.2 CALM 0 0 0 0 1018.8 1018.8 0.0
24/10:30pm 12.1 11.8 8.6 79 1.7 CALM 0 0 0 0 1019.1 1019.1 0.0
24/10:00pm 12.5 12.3 9.0 79 1.8 CALM 0 0 0 0 1019.0 1019.0 0.0
24/09:30pm 13.2 12.9 8.5 73 2.4 CALM 0 2 0 1 1018.8 1018.8 0.0
24/09:00pm 13.7 13.6 9.6 76 2.1 CALM 0 0 0 0 1018.5 1018.4 0.0
24/08:30pm 13.1 12.9 9.2 77 2.0 CALM 0 0 0 0 1018.4 1018.3 0.0
24/08:00pm 13.8 13.6 9.0 73 2.4 CALM 0 0 0 0 1018.3 1018.2 0.0
24/07:30pm 14.4 14.3 9.4 72 2.6 CALM 0 0 0 0 1018.2 1018.1 0.0
24/07:00pm 14.6 14.5 9.4 71 2.7 CALM 0 0 0 0 1017.8 1017.7 0.0
24/06:30pm 15.5 15.2 8.7 64 3.5 CALM 0 0 0 0 1017.4 1017.3 0.0
24/06:00pm 16.6 16.5 9.3 62 3.8 CALM 0 2 0 1 1017.1 1017.0 0.0
24/05:30pm 17.2 17.0 9.1 59 4.2 CALM 0 0 0 0 1016.7 1016.6 0.0
24/05:00pm 19.4 18.7 8.4 49 5.7 SSW 2 2 1 1 1016.5 1016.4 0.0
24/04:30pm 22.2 21.1 6.8 37 7.9 SSE 2 4 1 2 1016.1 1016.0 0.0
24/04:00pm 23.2 22.0 6.5 34 8.6 SE 2 6 1 3 1015.8 1015.7 0.0
24/03:30pm 23.8 22.1 6.1 32 9.1 SE 4 7 2 4 1015.8 1015.7 0.0
24/03:00pm 25.2 23.9 5.9 29 9.9 SW 2 6 1 3 1015.7 1015.6 0.0
24/02:30pm 24.6 22.3 4.9 28 9.9 WSW 6 7 3 4 1015.8 1015.7 0.0
24/02:00pm 24.7 22.4 5.0 28 9.9 WSW 6 9 3 5 1015.6 1015.5 0.0

Latest Capital City Observations: Canberra | Sydney | Melbourne | Brisbane | Adelaide | Perth | Hobart | Darwin

Other Formats:

Comma delimited format used in spreadsheet applications
http://www.bom.gov.au/fwo/IDQ60901/IDQ60901.95572.axf

JavaScript Object Notation format (JSON) in row-major order
http://www.bom.gov.au/fwo/IDQ60901/IDQ60901.95572.json